Time;durP1;ratioP1;P1;durP2;ratioP2;P2;SDS_P1;SDS_P2;PMS_P1;PMS_P2;Temp;Humidity;BMP_temperature;BMP_pressure;BME280_temperature;BME280_humidity;BME280_pressure;Samples;Min_cycle;Max_cycle;Signal;HPM_P1;HPM_P2
2023/03/02 00:01:19;;;;;;;12.83;9.37;;;4.70;64.80;;;;;;5073292;28;20445;-57
2023/03/02 00:03:46;;;;;;;11.13;7.43;;;4.70;64.10;;;;;;5073430;28;20455;-57
2023/03/02 00:06:13;;;;;;;12.90;9.17;;;4.70;64.00;;;;;;5073274;28;20448;-57
2023/03/02 00:08:40;;;;;;;10.33;8.70;;;4.70;64.00;;;;;;5073237;28;20452;-57
2023/03/02 00:11:09;;;;;;;12.40;8.20;;;4.70;64.10;;;;;;5073170;28;20469;-57
2023/03/02 00:13:37;;;;;;;13.03;8.77;;;4.70;64.00;;;;;;5073049;28;20449;-57
2023/03/02 00:16:05;;;;;;;11.90;8.73;;;4.70;63.90;;;;;;5073088;28;20449;-57
2023/03/02 00:18:31;;;;;;;13.37;10.07;;;4.70;64.10;;;;;;5073118;28;20501;-57
2023/03/02 00:20:58;;;;;;;12.13;8.63;;;4.60;64.00;;;;;;5073127;28;20469;-57
2023/03/02 00:23:25;;;;;;;14.00;8.83;;;4.60;65.00;;;;;;5072861;28;20491;-57
2023/03/02 00:25:51;;;;;;;10.23;8.37;;;4.60;64.30;;;;;;5073087;28;20448;-57
2023/03/02 00:28:20;;;;;;;9.20;7.03;;;4.50;64.80;;;;;;5073064;28;20449;-57
2023/03/02 00:30:46;;;;;;;14.00;8.93;;;4.50;66.00;;;;;;5072987;28;20468;-57
2023/03/02 00:33:13;;;;;;;12.27;8.50;;;4.50;65.70;;;;;;5076184;28;20445;-57
2023/03/02 00:35:41;;;;;;;11.17;8.73;;;4.50;66.30;;;;;;5076596;28;20437;-57
2023/03/02 00:38:08;;;;;;;9.83;7.30;;;4.40;66.40;;;;;;5076892;28;20450;-57
2023/03/02 00:40:35;;;;;;;12.57;8.43;;;4.40;66.50;;;;;;5076829;28;20514;-57
2023/03/02 00:43:01;;;;;;;10.70;8.43;;;4.40;66.70;;;;;;5076762;28;20484;-57
2023/03/02 00:45:29;;;;;;;11.40;8.10;;;4.40;66.70;;;;;;5077021;28;20452;-57
2023/03/02 00:47:56;;;;;;;10.63;8.40;;;4.40;66.40;;;;;;5076699;28;20445;-57
2023/03/02 00:50:23;;;;;;;10.57;7.77;;;4.40;66.00;;;;;;5076596;28;20486;-57
2023/03/02 00:52:50;;;;;;;9.03;8.13;;;4.30;65.70;;;;;;5077017;28;20433;-57
2023/03/02 00:55:16;;;;;;;11.23;8.70;;;4.20;65.60;;;;;;5076202;28;20942;-57
2023/03/02 00:57:43;;;;;;;11.13;8.07;;;4.10;65.70;;;;;;5076287;28;20451;-57
2023/03/02 01:00:11;;;;;;;11.67;8.33;;;4.00;66.60;;;;;;5076564;28;20801;-57
2023/03/02 01:02:42;;;;;;;14.43;8.77;;;3.90;67.10;;;;;;5076489;28;20476;-57
2023/03/02 01:05:09;;;;;;;12.70;8.20;;;3.90;67.80;;;;;;5076854;28;20425;-57
2023/03/02 01:07:36;;;;;;;12.17;8.00;;;3.80;68.40;;;;;;5076553;28;20817;-56
2023/03/02 01:10:03;;;;;;;13.93;9.10;;;3.80;69.00;;;;;;5076560;28;20476;-57
2023/03/02 01:12:31;;;;;;;12.50;9.10;;;3.70;69.20;;;;;;5076376;28;21000;-57
2023/03/02 01:14:58;;;;;;;14.50;8.97;;;3.70;69.80;;;;;;5076693;28;20444;-57
2023/03/02 01:17:25;;;;;;;10.03;7.20;;;3.70;70.20;;;;;;5076229;28;20448;-57
2023/03/02 01:19:53;;;;;;;11.70;8.80;;;3.70;70.50;;;;;;5076160;28;20468;-57
2023/03/02 01:22:21;;;;;;;9.13;7.07;;;3.70;70.70;;;;;;5075846;28;20537;-57
2023/03/02 01:24:48;;;;;;;11.70;7.93;;;3.70;70.70;;;;;;5076167;28;20535;-57
2023/03/02 01:27:15;;;;;;;9.60;7.73;;;3.60;70.40;;;;;;5076010;28;20452;-57
2023/03/02 01:29:42;;;;;;;12.57;8.70;;;3.60;70.40;;;;;;5075797;28;20538;-57
2023/03/02 01:32:09;;;;;;;9.33;7.23;;;3.50;70.20;;;;;;5075999;28;20455;-57
2023/03/02 01:34:35;;;;;;;11.40;7.90;;;3.40;70.20;;;;;;5076146;28;20453;-57
2023/03/02 01:37:04;;;;;;;10.93;8.13;;;3.40;70.90;;;;;;5075978;28;20448;-57
2023/03/02 01:39:31;;;;;;;7.90;7.10;;;3.30;70.90;;;;;;5075908;28;20473;-57
2023/03/02 01:41:57;;;;;;;11.37;7.77;;;3.30;71.90;;;;;;5075813;28;20456;-57
2023/03/02 01:44:39;;;;;;;9.97;7.70;;;3.30;71.70;;;;;;5075895;28;20452;-57
2023/03/02 01:47:12;;;;;;;9.83;7.67;;;3.30;72.20;;;;;;5076488;28;20428;-57
2023/03/02 01:49:43;;;;;;;12.53;7.57;;;3.20;72.40;;;;;;5075438;28;21045;-57
2023/03/02 01:52:12;;;;;;;10.73;7.30;;;3.30;73.00;;;;;;5075659;28;20429;-57
2023/03/02 01:54:40;;;;;;;11.37;7.63;;;3.20;73.30;;;;;;5075567;28;20501;-57
2023/03/02 01:57:08;;;;;;;12.30;7.43;;;3.30;73.30;;;;;;5075578;28;20452;-57
2023/03/02 01:59:37;;;;;;;11.50;8.23;;;3.20;73.40;;;;;;5075251;28;20893;-57
2023/03/02 02:02:07;;;;;;;11.53;7.97;;;3.20;73.40;;;;;;5075120;28;20817;-57
2023/03/02 02:04:37;;;;;;;10.63;7.57;;;3.20;73.60;;;;;;5075296;28;20441;-57
2023/03/02 02:07:05;;;;;;;10.10;7.43;;;3.20;74.10;;;;;;5075606;28;20480;-57
2023/03/02 02:09:36;;;;;;;7.73;6.80;;;3.20;74.40;;;;;;5075204;28;20471;-57
2023/03/02 02:12:04;;;;;;;9.60;7.17;;;3.20;74.50;;;;;;5075266;28;20448;-57
2023/03/02 02:14:31;;;;;;;14.13;7.27;;;3.20;74.70;;;;;;5075115;28;20453;-57
2023/03/02 02:16:58;;;;;;;10.50;7.50;;;3.10;74.90;;;;;;5075042;28;20456;-57
2023/03/02 02:19:37;;;;;;;11.60;7.90;;;3.10;75.80;;;;;;5074937;28;20464;-57
2023/03/02 02:22:04;;;;;;;11.77;7.60;;;3.10;75.40;;;;;;5074752;28;20461;-57
2023/03/02 02:24:38;;;;;;;11.00;8.20;;;3.10;75.60;;;;;;5074540;28;20989;-57
2023/03/02 02:27:07;;;;;;;9.97;7.63;;;3.10;75.90;;;;;;5074866;28;20441;-57
2023/03/02 02:29:37;;;;;;;11.00;7.67;;;3.10;76.00;;;;;;5074499;28;21008;-57
2023/03/02 02:32:10;;;;;;;13.23;8.33;;;3.10;76.10;;;;;;5074727;28;20460;-57
2023/03/02 02:34:42;;;;;;;11.67;7.27;;;3.10;76.20;;;;;;5074309;28;20528;-57
2023/03/02 02:37:14;;;;;;;10.43;7.60;;;3.10;76.00;;;;;;5074207;28;20797;-57
2023/03/02 02:39:43;;;;;;;10.83;7.23;;;3.10;76.10;;;;;;5074329;28;20887;-57
2023/03/02 02:42:15;;;;;;;11.93;8.63;;;3.10;76.20;;;;;;5074663;28;20451;-57
2023/03/02 02:44:42;;;;;;;12.77;7.37;;;3.10;76.00;;;;;;5074581;28;20487;-57
2023/03/02 02:47:16;;;;;;;11.57;8.67;;;3.10;76.10;;;;;;5074672;28;20455;-57
2023/03/02 02:49:44;;;;;;;12.50;9.03;;;3.10;76.40;;;;;;5074444;28;20479;-57
2023/03/02 02:52:15;;;;;;;10.23;7.60;;;3.10;76.60;;;;;;5074092;28;20453;-57
2023/03/02 02:54:44;;;;;;;11.33;7.73;;;3.10;76.50;;;;;;5073421;28;20433;-57
2023/03/02 02:57:16;;;;;;;12.20;8.53;;;3.00;76.30;;;;;;5074300;28;20474;-57
2023/03/02 02:59:46;;;;;;;10.07;8.20;;;3.00;76.70;;;;;;5074136;28;20483;-57
2023/03/02 03:02:18;;;;;;;10.37;7.83;;;3.00;76.80;;;;;;5074839;28;20455;-57
2023/03/02 03:04:44;;;;;;;9.70;7.43;;;3.00;76.80;;;;;;5074152;28;20491;-56
2023/03/02 03:07:20;;;;;;;10.00;7.43;;;3.00;77.10;;;;;;5074026;28;20518;-57
2023/03/02 03:09:51;;;;;;;12.30;7.50;;;3.00;77.40;;;;;;5073980;28;20464;-57
2023/03/02 03:12:21;;;;;;;10.43;8.23;;;3.00;77.70;;;;;;5073876;28;20460;-57
2023/03/02 03:14:49;;;;;;;11.13;8.60;;;2.90;77.80;;;;;;5073929;28;20432;-57
2023/03/02 03:17:16;;;;;;;9.97;7.20;;;2.90;77.90;;;;;;5073862;28;20459;-57
2023/03/02 03:19:44;;;;;;;10.40;7.93;;;2.90;77.90;;;;;;5073731;28;20465;-57
2023/03/02 03:22:13;;;;;;;10.80;8.63;;;2.90;78.00;;;;;;5073783;28;20539;-57
2023/03/02 03:24:42;;;;;;;10.53;7.90;;;2.80;78.10;;;;;;5073640;28;20476;-57
2023/03/02 03:27:11;;;;;;;17.70;8.67;;;2.80;78.20;;;;;;5073663;28;20457;-57
2023/03/02 03:29:41;;;;;;;11.60;8.27;;;2.80;78.40;;;;;;5073589;28;20465;-57
2023/03/02 03:32:08;;;;;;;11.07;7.37;;;2.80;78.80;;;;;;5074446;28;20437;-57
2023/03/02 03:34:39;;;;;;;11.20;8.83;;;2.80;79.00;;;;;;5074196;28;20452;-57
2023/03/02 03:37:06;;;;;;;11.93;7.90;;;2.80;79.10;;;;;;5073602;28;20514;-57
2023/03/02 03:39:33;;;;;;;11.60;8.53;;;2.80;79.10;;;;;;5073565;28;20468;-57
2023/03/02 03:42:00;;;;;;;10.17;7.13;;;2.80;79.30;;;;;;5073691;28;20448;-57
2023/03/02 03:44:27;;;;;;;15.70;8.10;;;2.80;79.30;;;;;;5073100;28;21022;-57
2023/03/02 03:46:55;;;;;;;9.67;7.43;;;2.80;79.40;;;;;;5073610;28;20456;-57
2023/03/02 03:49:22;;;;;;;11.47;6.60;;;2.80;79.40;;;;;;5073405;28;20464;-57
2023/03/02 03:51:49;;;;;;;10.73;7.53;;;2.70;79.30;;;;;;5074128;28;20449;-57
2023/03/02 03:54:15;;;;;;;12.87;8.27;;;2.70;79.30;;;;;;5075399;28;20449;-57
2023/03/02 03:56:45;;;;;;;10.37;8.10;;;2.70;79.30;;;;;;5074127;28;20452;-57
2023/03/02 03:59:14;;;;;;;10.10;8.00;;;2.70;79.40;;;;;;5073280;28;21001;-57
2023/03/02 04:01:43;;;;;;;11.47;7.80;;;2.70;79.70;;;;;;5073456;28;20456;-57
2023/03/02 04:04:14;;;;;;;9.93;7.60;;;2.60;79.70;;;;;;5073259;28;20483;-57
2023/03/02 04:06:41;;;;;;;11.97;9.20;;;2.70;79.90;;;;;;5072836;28;20447;-57
2023/03/02 04:09:08;;;;;;;12.93;7.87;;;2.70;80.10;;;;;;5073301;28;20476;-57
2023/03/02 04:11:39;;;;;;;11.20;7.43;;;2.60;80.00;;;;;;5073336;28;20506;-57
2023/03/02 04:14:07;;;;;;;11.83;7.23;;;2.70;80.10;;;;;;5073257;28;20429;-57
2023/03/02 04:16:35;;;;;;;10.73;8.00;;;2.70;80.10;;;;;;5072871;28;21012;-57
2023/03/02 04:19:02;;;;;;;11.53;8.30;;;2.70;80.10;;;;;;5072889;28;20969;-57
2023/03/02 04:21:30;;;;;;;10.77;7.40;;;2.70;80.20;;;;;;5073215;28;20460;-57
2023/03/02 04:23:57;;;;;;;9.93;7.07;;;2.70;80.10;;;;;;5073254;28;20469;-57
2023/03/02 04:26:25;;;;;;;11.40;8.00;;;2.70;80.10;;;;;;5073119;28;20458;-57
2023/03/02 04:28:52;;;;;;;9.60;6.90;;;2.70;80.20;;;;;;5073163;28;20461;-57
2023/03/02 04:31:19;;;;;;;11.30;7.80;;;2.70;80.10;;;;;;5073037;28;20506;-57
2023/03/02 04:33:46;;;;;;;9.10;6.93;;;2.70;80.00;;;;;;5072850;28;20846;-57
2023/03/02 04:36:12;;;;;;;12.57;7.40;;;2.70;79.90;;;;;;5073061;28;20498;-57
2023/03/02 04:38:40;;;;;;;9.70;7.87;;;2.70;79.80;;;;;;5073018;28;20451;-57
2023/03/02 04:41:07;;;;;;;8.20;6.90;;;2.70;79.90;;;;;;5072575;28;20997;-56
2023/03/02 04:43:34;;;;;;;8.80;6.80;;;2.70;79.80;;;;;;5073035;28;20484;-57
2023/03/02 04:46:00;;;;;;;10.73;7.67;;;2.70;79.70;;;;;;5073086;28;20514;-57
2023/03/02 04:48:27;;;;;;;10.10;7.27;;;2.70;79.80;;;;;;5072851;28;20502;-57
2023/03/02 04:50:54;;;;;;;8.23;7.17;;;2.70;80.00;;;;;;5072468;28;20861;-57
2023/03/02 04:53:21;;;;;;;10.60;7.60;;;2.70;79.90;;;;;;5072488;28;20857;-57
2023/03/02 04:55:49;;;;;;;10.40;7.00;;;2.70;79.80;;;;;;5072466;28;20965;-57
2023/03/02 04:58:15;;;;;;;12.17;8.20;;;2.70;79.90;;;;;;5072887;28;20471;-57
2023/03/02 05:00:42;;;;;;;9.63;6.80;;;2.70;79.70;;;;;;5073058;28;20464;-56
2023/03/02 05:03:09;;;;;;;12.50;7.70;;;2.70;79.70;;;;;;5073690;28;20480;-57
2023/03/02 05:05:36;;;;;;;11.57;7.63;;;2.70;79.70;;;;;;5072641;28;20460;-57
2023/03/02 05:08:02;;;;;;;10.80;7.97;;;2.60;79.50;;;;;;5072926;28;20444;-57
2023/03/02 05:10:29;;;;;;;8.57;7.33;;;2.60;79.40;;;;;;5072615;28;20480;-57
2023/03/02 05:13:03;;;;;;;10.10;7.20;;;2.60;79.50;;;;;;5072624;28;20501;-57
2023/03/02 05:15:33;;;;;;;14.23;9.77;;;2.60;79.60;;;;;;5072579;28;20428;-57
2023/03/02 05:18:00;;;;;;;16.50;10.40;;;2.60;79.80;;;;;;5073643;28;20824;-57
2023/03/02 05:20:29;;;;;;;18.83;13.13;;;2.60;80.00;;;;;;5075997;28;20475;-57
2023/03/02 05:22:57;;;;;;;14.03;10.57;;;2.60;80.10;;;;;;5075663;28;20461;-57
2023/03/02 05:25:24;;;;;;;15.53;10.10;;;2.60;80.00;;;;;;5076035;28;20452;-57
2023/03/02 05:27:52;;;;;;;14.43;9.13;;;2.60;80.10;;;;;;5076042;28;20452;-57
2023/03/02 05:30:21;;;;;;;12.70;7.80;;;2.60;80.50;;;;;;5075694;28;20968;-57
2023/03/02 05:32:48;;;;;;;13.23;7.73;;;2.60;80.60;;;;;;5076016;28;20455;-57
2023/03/02 05:35:15;;;;;;;10.43;7.63;;;2.60;80.60;;;;;;5075916;28;20925;-57
2023/03/02 05:37:43;;;;;;;9.70;7.50;;;2.50;80.50;;;;;;5075921;28;20453;-57
2023/03/02 05:40:13;;;;;;;11.10;7.80;;;2.60;80.60;;;;;;5075808;28;20468;-57
2023/03/02 05:42:40;;;;;;;14.73;8.63;;;2.50;80.50;;;;;;5075786;28;20452;-57
2023/03/02 05:45:08;;;;;;;10.83;8.30;;;2.50;80.80;;;;;;5075597;28;20484;-57
2023/03/02 05:47:36;;;;;;;9.43;6.50;;;2.50;80.90;;;;;;5075608;28;20456;-57
2023/03/02 05:50:04;;;;;;;9.93;6.77;;;2.50;81.10;;;;;;5075650;28;20473;-57
2023/03/02 05:52:30;;;;;;;9.80;7.50;;;2.50;81.10;;;;;;5075528;28;20448;-57
2023/03/02 05:54:57;;;;;;;9.50;7.60;;;2.50;81.00;;;;;;5075574;28;20441;-57
2023/03/02 05:57:24;;;;;;;9.70;6.77;;;2.50;81.00;;;;;;5075178;28;20844;-57
2023/03/02 05:59:50;;;;;;;9.87;6.40;;;2.40;80.90;;;;;;5075449;28;20468;-57
2023/03/02 06:02:17;;;;;;;9.90;7.40;;;2.40;81.20;;;;;;5075404;28;20459;-57
2023/03/02 06:04:45;;;;;;;10.20;7.07;;;2.40;81.40;;;;;;5075204;28;20639;-57
2023/03/02 06:07:13;;;;;;;11.67;8.50;;;2.30;81.30;;;;;;5075782;28;20460;-57
2023/03/02 06:09:40;;;;;;;13.40;9.13;;;2.30;81.40;;;;;;5075135;28;20483;-57
2023/03/02 06:12:08;;;;;;;10.73;8.30;;;2.30;81.30;;;;;;5075270;28;20519;-57
2023/03/02 06:14:36;;;;;;;12.33;8.47;;;2.20;81.10;;;;;;5075129;28;20452;-57
2023/03/02 06:17:03;;;;;;;9.87;7.60;;;2.20;82.00;;;;;;5075093;28;20448;-57
2023/03/02 06:19:29;;;;;;;12.10;7.80;;;2.20;81.20;;;;;;5074976;28;20464;-57
2023/03/02 06:21:57;;;;;;;8.87;7.10;;;2.20;81.00;;;;;;5074822;28;20847;-57
2023/03/02 06:24:24;;;;;;;9.77;7.77;;;2.20;80.90;;;;;;5074870;28;20533;-57
2023/03/02 06:26:53;;;;;;;9.67;7.40;;;2.10;80.90;;;;;;5075013;28;20453;-57
2023/03/02 06:29:20;;;;;;;9.70;7.43;;;2.10;80.80;;;;;;5073631;28;20465;-57
2023/03/02 06:31:47;;;;;;;12.13;7.90;;;2.10;80.90;;;;;;5074795;28;20452;-57
2023/03/02 06:34:13;;;;;;;9.43;7.93;;;2.10;81.40;;;;;;5074695;28;20961;-57
2023/03/02 06:36:40;;;;;;;14.03;8.30;;;2.10;81.60;;;;;;5074434;28;20445;-57
2023/03/02 06:39:14;;;;;;;9.50;7.07;;;2.10;81.80;;;;;;5074440;28;20979;-57
2023/03/02 06:41:41;;;;;;;14.83;7.90;;;2.10;82.10;;;;;;5076020;28;20835;-57
2023/03/02 06:44:08;;;;;;;8.53;7.47;;;2.10;82.30;;;;;;5075387;28;20490;-58
2023/03/02 06:46:34;;;;;;;11.27;8.60;;;2.10;82.20;;;;;;5074910;28;20506;-57
2023/03/02 06:49:01;;;;;;;11.40;8.07;;;2.10;82.30;;;;;;5074916;28;20452;-57
2023/03/02 06:51:28;;;;;;;14.30;7.77;;;2.10;82.40;;;;;;5074391;28;20452;-57
2023/03/02 06:53:54;;;;;;;10.77;7.90;;;2.10;82.60;;;;;;5074803;28;20444;-57
2023/03/02 06:56:23;;;;;;;8.50;7.47;;;2.10;82.60;;;;;;5074319;28;20793;-57
2023/03/02 06:58:49;;;;;;;14.10;8.10;;;2.10;82.60;;;;;;5074119;28;20455;-57
2023/03/02 07:01:16;;;;;;;14.10;8.50;;;2.10;82.70;;;;;;5074235;28;20453;-57
2023/03/02 07:03:43;;;;;;;10.67;8.30;;;2.10;83.00;;;;;;5074087;28;20459;-57
2023/03/02 07:06:11;;;;;;;10.67;8.67;;;2.10;83.10;;;;;;5073831;28;20965;-57
2023/03/02 07:08:37;;;;;;;15.60;8.90;;;2.20;83.20;;;;;;5073758;28;20444;-57
2023/03/02 07:11:06;;;;;;;11.87;8.93;;;2.20;83.20;;;;;;5074000;28;20479;-57
2023/03/02 07:13:34;;;;;;;11.63;8.40;;;2.20;83.40;;;;;;5074036;28;20887;-57
2023/03/02 07:16:05;;;;;;;11.17;8.30;;;2.20;83.50;;;;;;5074005;28;20445;-57
2023/03/02 07:18:31;;;;;;;11.30;8.50;;;2.20;83.50;;;;;;5074017;28;20441;-57
2023/03/02 07:20:58;;;;;;;13.00;9.37;;;2.20;83.70;;;;;;5074026;28;20471;-57
2023/03/02 07:23:24;;;;;;;11.90;8.70;;;2.30;84.10;;;;;;5073866;28;20464;-57
2023/03/02 07:25:51;;;;;;;15.53;8.30;;;2.30;84.30;;;;;;5073739;28;20487;-57
2023/03/02 07:28:20;;;;;;;14.53;9.80;;;2.30;84.30;;;;;;5073800;28;20455;-57
2023/03/02 07:30:48;;;;;;;13.57;8.47;;;2.40;84.50;;;;;;5073699;28;20525;-57
2023/03/02 07:33:15;;;;;;;13.80;8.30;;;2.40;84.70;;;;;;5073654;28;20467;-57
2023/03/02 07:35:41;;;;;;;10.70;7.67;;;2.40;84.90;;;;;;5073828;28;20498;-57
2023/03/02 07:38:08;;;;;;;10.30;7.90;;;2.40;85.00;;;;;;5073617;28;20873;-57
2023/03/02 07:40:36;;;;;;;10.07;7.97;;;2.50;85.30;;;;;;5073446;28;20460;-57
2023/03/02 07:43:03;;;;;;;11.97;7.23;;;2.50;85.40;;;;;;5073496;28;20448;-57
2023/03/02 07:45:29;;;;;;;11.07;8.10;;;2.50;85.20;;;;;;5073042;28;20488;-57
2023/03/02 07:47:58;;;;;;;12.03;8.70;;;2.60;85.10;;;;;;5073480;28;20449;-57
2023/03/02 07:50:24;;;;;;;12.83;8.27;;;2.60;84.80;;;;;;5073388;28;20464;-57
2023/03/02 07:52:51;;;;;;;13.00;8.43;;;2.70;84.50;;;;;;5073680;28;20441;-57
2023/03/02 07:55:18;;;;;;;17.90;11.07;;;2.70;84.10;;;;;;5073097;28;20930;-57
2023/03/02 07:57:44;;;;;;;16.87;11.73;;;2.80;83.80;;;;;;5073612;28;20440;-57
2023/03/02 08:00:12;;;;;;;13.40;9.03;;;2.90;83.50;;;;;;5073312;28;20467;-57
2023/03/02 08:02:39;;;;;;;18.70;12.83;;;2.90;83.30;;;;;;5073249;28;20444;-57
2023/03/02 08:05:08;;;;;;;15.50;10.57;;;3.00;83.10;;;;;;5073176;28;20492;-57
2023/03/02 08:07:35;;;;;;;16.60;11.63;;;3.00;82.60;;;;;;5073764;28;20456;-57
2023/03/02 08:10:02;;;;;;;17.37;10.67;;;3.10;82.40;;;;;;5073529;28;20468;-57
2023/03/02 08:12:29;;;;;;;14.47;11.60;;;3.10;81.90;;;;;;5073208;28;20449;-57
2023/03/02 08:14:56;;;;;;;13.20;8.80;;;3.20;81.80;;;;;;5073181;28;20445;-57
2023/03/02 08:17:23;;;;;;;10.87;9.13;;;3.20;81.60;;;;;;5073124;28;20456;-57
2023/03/02 08:19:50;;;;;;;11.93;8.30;;;3.30;81.50;;;;;;5073199;28;20476;-57
2023/03/02 08:22:18;;;;;;;15.17;10.03;;;3.40;81.40;;;;;;5072857;28;20982;-57
2023/03/02 08:24:45;;;;;;;12.17;9.30;;;3.50;81.20;;;;;;5072751;28;20895;-57
2023/03/02 08:27:13;;;;;;;10.77;8.70;;;3.50;80.90;;;;;;5073034;28;20455;-57
2023/03/02 08:29:40;;;;;;;15.10;10.23;;;3.60;80.80;;;;;;5073012;28;20472;-57
2023/03/02 08:32:07;;;;;;;14.43;8.57;;;3.70;80.70;;;;;;5072718;28;20456;-57
2023/03/02 08:34:34;;;;;;;11.83;8.50;;;3.70;80.30;;;;;;5073015;28;20444;-57
2023/03/02 08:37:00;;;;;;;10.73;8.40;;;3.80;80.10;;;;;;5072941;28;20874;-57
2023/03/02 08:39:30;;;;;;;14.50;9.63;;;3.90;79.90;;;;;;5072919;28;20476;-57
2023/03/02 08:41:56;;;;;;;10.07;8.77;;;4.00;79.10;;;;;;5072933;28;20489;-57
2023/03/02 08:44:23;;;;;;;11.87;8.13;;;4.10;78.60;;;;;;5072800;28;20539;-57
2023/03/02 08:46:51;;;;;;;10.87;8.13;;;4.10;78.30;;;;;;5072884;28;20452;-57
2023/03/02 08:49:18;;;;;;;12.00;9.17;;;4.20;78.30;;;;;;5073587;28;20468;-57
2023/03/02 08:51:47;;;;;;;14.63;8.57;;;4.20;78.10;;;;;;5072518;28;20990;-57
2023/03/02 08:54:15;;;;;;;12.87;9.40;;;4.30;78.00;;;;;;5075917;28;20470;-57
2023/03/02 08:56:43;;;;;;;14.80;9.17;;;4.30;77.70;;;;;;5076273;28;20960;-57
2023/03/02 08:59:13;;;;;;;12.60;8.40;;;4.40;77.70;;;;;;5076493;28;20517;-57
2023/03/02 09:01:40;;;;;;;15.90;9.50;;;4.50;77.70;;;;;;5076470;28;20449;-57
2023/03/02 09:04:08;;;;;;;11.30;8.50;;;4.60;76.60;;;;;;5076313;28;20456;-57
2023/03/02 09:06:37;;;;;;;12.50;8.03;;;4.70;76.40;;;;;;5076101;28;20840;-58
2023/03/02 09:09:04;;;;;;;11.13;7.97;;;4.70;75.70;;;;;;5076264;28;20444;-57
2023/03/02 09:11:31;;;;;;;8.17;6.90;;;4.80;75.40;;;;;;5076242;28;20452;-57
2023/03/02 09:13:59;;;;;;;13.47;7.30;;;4.90;75.30;;;;;;5075984;28;20452;-57
2023/03/02 09:16:26;;;;;;;10.80;7.70;;;5.00;73.90;;;;;;5076225;28;20441;-57
2023/03/02 09:18:53;;;;;;;11.83;8.07;;;5.10;72.60;;;;;;5076103;28;20930;-57
2023/03/02 09:21:21;;;;;;;15.00;8.07;;;5.10;71.70;;;;;;5076052;28;20460;-57
2023/03/02 09:23:47;;;;;;;12.33;8.57;;;5.20;70.90;;;;;;5076663;28;20432;-57
2023/03/02 09:26:14;;;;;;;10.00;8.20;;;5.30;70.30;;;;;;5077553;28;20480;-57
2023/03/02 09:28:41;;;;;;;14.33;8.10;;;5.40;70.60;;;;;;5076139;28;20968;-57
2023/03/02 09:31:09;;;;;;;11.83;8.80;;;5.50;70.60;;;;;;5076239;28;20461;-58
2023/03/02 09:33:36;;;;;;;11.40;9.07;;;5.60;70.10;;;;;;5076168;28;20459;-57
2023/03/02 09:36:05;;;;;;;12.63;8.33;;;5.70;69.40;;;;;;5075742;28;20848;-57
2023/03/02 09:38:32;;;;;;;11.60;8.20;;;5.80;68.70;;;;;;5075979;28;20441;-57
2023/03/02 09:41:27;;;;;;;9.50;7.80;;;5.90;67.90;;;;;;5075897;28;20521;-57
2023/03/02 09:44:04;;;;;;;10.07;7.70;;;6.10;67.90;;;;;;5072105;28;20954;-57
2023/03/02 09:46:37;;;;;;;11.00;7.47;;;6.20;66.50;;;;;;5075715;28;20471;-57
2023/03/02 09:49:16;;;;;;;12.20;8.97;;;6.30;65.10;;;;;;5075644;28;20433;-57
2023/03/02 09:51:47;;;;;;;13.67;8.40;;;6.50;64.00;;;;;;5075760;28;20436;-58
2023/03/02 09:54:15;;;;;;;15.20;8.77;;;6.70;63.20;;;;;;5075611;28;20429;-58
2023/03/02 09:56:44;;;;;;;15.37;8.83;;;6.80;62.90;;;;;;5076325;28;20451;-58
2023/03/02 09:59:21;;;;;;;14.77;8.97;;;6.90;62.60;;;;;;5075416;28;20468;-58
2023/03/02 10:01:52;;;;;;;13.50;8.50;;;7.00;61.50;;;;;;5075528;28;20490;-57
2023/03/02 10:04:24;;;;;;;13.33;7.50;;;7.20;61.30;;;;;;5075351;28;20546;-59
2023/03/02 10:06:56;;;;;;;13.10;8.00;;;7.30;60.10;;;;;;5075600;28;20438;-59
2023/03/02 10:09:23;;;;;;;11.37;8.43;;;7.50;59.60;;;;;;5075604;28;20472;-59
2023/03/02 10:12:02;;;;;;;16.40;8.73;;;7.70;58.80;;;;;;5076097;28;20455;-59
2023/03/02 10:14:34;;;;;;;11.60;8.40;;;7.90;58.40;;;;;;5075176;28;20452;-58
2023/03/02 10:17:22;;;;;;;10.77;8.13;;;8.10;57.50;;;;;;5075199;28;20441;-59
2023/03/02 10:19:56;;;;;;;11.50;7.73;;;8.40;57.60;;;;;;5075003;28;20469;-59
2023/03/02 10:22:29;;;;;;;9.90;7.97;;;8.60;56.80;;;;;;5074635;28;20460;-59
2023/03/02 10:25:05;;;;;;;11.40;8.50;;;8.90;55.90;;;;;;5074939;28;20894;-59
2023/03/02 10:27:37;;;;;;;9.70;8.10;;;9.30;55.20;;;;;;5075013;28;20445;-59
2023/03/02 10:30:14;;;;;;;9.40;8.40;;;9.70;53.90;;;;;;5075005;28;20464;-59
2023/03/02 10:32:45;;;;;;;12.07;8.97;;;10.20;51.90;;;;;;5075647;28;20486;-59
2023/03/02 10:35:18;;;;;;;12.80;8.80;;;10.70;50.10;;;;;;5074792;28;20428;-59
2023/03/02 10:37:44;;;;;;;9.73;8.10;;;11.30;48.80;;;;;;5074761;28;20433;-59
2023/03/02 10:40:28;;;;;;;12.83;8.80;;;11.70;47.70;;;;;;5074594;28;20456;-59
2023/03/02 10:42:57;;;;;;;11.53;8.50;;;12.30;46.50;;;;;;5074669;28;20429;-59
2023/03/02 10:45:28;;;;;;;11.70;9.63;;;12.80;44.30;;;;;;5074199;28;21005;-59
2023/03/02 10:48:03;;;;;;;11.90;8.40;;;13.30;42.50;;;;;;5074658;28;20429;-59
2023/03/02 10:50:30;;;;;;;10.00;9.00;;;13.80;40.80;;;;;;5074665;28;20471;-59
2023/03/02 10:52:57;;;;;;;11.57;10.03;;;14.30;39.60;;;;;;5074481;28;20444;-59
2023/03/02 10:55:23;;;;;;;26.07;12.00;;;14.80;38.50;;;;;;5074385;28;20840;-59
2023/03/02 10:58:01;;;;;;;15.20;12.30;;;15.20;37.80;;;;;;5074404;28;20453;-59
2023/03/02 11:00:29;;;;;;;10.83;8.37;;;15.80;36.20;;;;;;5074419;28;20475;-59
2023/03/02 11:02:59;;;;;;;11.07;9.10;;;16.20;35.00;;;;;;5075063;28;20449;-59
2023/03/02 11:05:32;;;;;;;10.97;9.07;;;16.60;34.30;;;;;;5074061;28;20545;-59
2023/03/02 11:08:01;;;;;;;10.23;8.57;;;17.10;33.50;;;;;;5074173;28;20486;-59
2023/03/02 11:10:31;;;;;;;10.90;8.20;;;17.50;32.80;;;;;;5074018;28;20464;-59
2023/03/02 11:13:00;;;;;;;10.70;8.53;;;17.90;31.70;;;;;;5073985;28;20544;-59
2023/03/02 11:15:34;;;;;;;12.50;8.37;;;18.30;30.40;;;;;;5073370;28;20449;-59
2023/03/02 11:18:05;;;;;;;11.07;8.17;;;18.50;29.90;;;;;;5073904;28;20433;-59
2023/03/02 11:20:37;;;;;;;9.30;8.50;;;18.90;29.70;;;;;;5073889;28;20841;-59
2023/03/02 11:23:14;;;;;;;9.10;8.20;;;19.20;29.10;;;;;;5073567;28;20478;-59
2023/03/02 11:25:48;;;;;;;12.03;9.70;;;19.40;28.50;;;;;;5073735;28;20642;-59
2023/03/02 11:28:30;;;;;;;9.73;7.90;;;19.60;28.60;;;;;;5073553;28;20952;-59
2023/03/02 11:30:58;;;;;;;9.27;8.13;;;19.90;28.30;;;;;;5073566;28;20468;-58
2023/03/02 11:33:30;;;;;;;11.10;8.30;;;20.10;27.80;;;;;;5073693;28;20452;-58
2023/03/02 11:36:04;;;;;;;8.63;7.27;;;20.40;27.80;;;;;;5073661;28;20431;-58
2023/03/02 11:38:36;;;;;;;9.07;8.10;;;20.60;27.00;;;;;;5073370;28;20425;-58
2023/03/02 11:41:12;;;;;;;9.40;8.17;;;20.80;27.10;;;;;;5073717;28;20465;-58
2023/03/02 11:43:38;;;;;;;8.80;7.90;;;21.10;26.70;;;;;;5073337;28;20432;-58
2023/03/02 11:46:07;;;;;;;7.80;7.10;;;21.40;26.00;;;;;;5073082;28;21002;-58
2023/03/02 11:48:39;;;;;;;8.60;7.70;;;21.60;25.90;;;;;;5073520;28;20449;-58
2023/03/02 11:51:12;;;;;;;10.37;8.77;;;21.90;25.30;;;;;;5073333;28;20461;-58
2023/03/02 11:53:43;;;;;;;8.80;8.00;;;22.20;25.50;;;;;;5073051;28;20927;-59
2023/03/02 11:56:10;;;;;;;7.93;7.17;;;22.60;25.40;;;;;;5073421;28;20447;-58
2023/03/02 11:58:38;;;;;;;9.07;8.20;;;22.90;24.10;;;;;;5073388;28;20467;-58
2023/03/02 12:01:09;;;;;;;8.60;7.80;;;23.10;24.00;;;;;;5073386;28;20465;-58
2023/03/02 12:03:41;;;;;;;9.30;8.03;;;23.30;23.60;;;;;;5073578;28;20466;-58
2023/03/02 12:06:34;;;;;;;10.60;9.70;;;23.60;23.90;;;;;;5073651;28;20475;-58
2023/03/02 12:09:29;;;;;;;9.10;8.23;;;23.90;22.90;;;;;;5073697;28;20848;-58
2023/03/02 12:11:58;;;;;;;9.50;8.60;;;24.20;23.70;;;;;;5074934;28;20425;-58
2023/03/02 12:14:29;;;;;;;11.50;8.90;;;24.50;22.90;;;;;;5074326;28;20495;-58
2023/03/02 12:17:07;;;;;;;8.50;7.67;;;24.70;22.60;;;;;;5074369;28;20429;-58
2023/03/02 12:19:40;;;;;;;8.60;7.80;;;24.90;22.00;;;;;;5073859;28;20469;-58
2023/03/02 12:22:12;;;;;;;8.20;7.43;;;25.10;22.00;;;;;;5073345;28;20472;-58
2023/03/02 12:24:41;;;;;;;12.30;10.53;;;25.30;22.20;;;;;;5073428;28;20429;-58
2023/03/02 12:27:24;;;;;;;8.53;7.60;;;25.50;21.70;;;;;;5075049;28;20537;-58
2023/03/02 12:29:56;;;;;;;10.30;9.30;;;25.80;21.20;;;;;;5077277;28;20559;-58
2023/03/02 12:32:25;;;;;;;9.73;8.83;;;25.90;20.40;;;;;;5077676;28;20435;-58
2023/03/02 12:34:55;;;;;;;9.30;8.50;;;26.10;20.50;;;;;;5077450;28;20833;-58
2023/03/02 12:37:27;;;;;;;8.40;7.57;;;26.20;20.30;;;;;;5077197;28;20535;-58
2023/03/02 12:40:30;;;;;;;8.67;7.80;;;26.50;20.30;;;;;;5077316;28;20475;-58
2023/03/02 12:43:30;;;;;;;9.70;8.70;;;26.60;20.60;;;;;;5052312;28;20505;-58
2023/03/02 12:46:22;;;;;;;9.23;8.27;;;26.80;20.40;;;;;;5077263;28;20567;-58
2023/03/02 12:49:02;;;;;;;7.43;6.57;;;27.00;19.90;;;;;;5076960;28;20448;-59
2023/03/02 12:51:32;;;;;;;9.47;6.90;;;27.20;19.70;;;;;;5076744;28;20929;-59
2023/03/02 12:54:04;;;;;;;7.13;6.53;;;27.40;19.90;;;;;;5076694;28;20496;-59
2023/03/02 12:56:31;;;;;;;8.93;7.27;;;27.60;19.20;;;;;;5076563;28;20436;-59
2023/03/02 12:58:58;;;;;;;8.93;8.13;;;27.80;19.30;;;;;;5076582;28;20646;-59